Scroll down
FLIGHT INFORMATION
British Airways

BAW218

At Arrival Gate

KDEN
 EGLL
DATE: 2019-09-05
GATE: A37W
GATE DEPARTURE: 01:42
TAKEOFF: 01:55
DATE: 2019-09-05
GATE: 534
LANDING: 09:33
GATE ARRIVAL: 09:38
FLIGHT DATA
Crew: 
Speed: 
530 kts
Altitude: 
39,053 ft
Stage Length: 
4,047.5 nm
Block Time: 
7.9 hrs
Flight Time: 
7.6 hrs
Fuel Used: 
177,107 lb
Cleared Route: KDEN GISTT KIDNG GINTH SPYCE TURBN CHICN KKIMM BRYCC TAYOT KP87A ABR YQT YMO JOVIE DORYY 5750N 5740N 5730N 5720N PIKIL SOVED LUTOV KELLY CASEL PENIL WAL EKLAD MOGTA NANTI NUGRA TOBID SOPIT WCONB BNN EGLL
TRACK DATA
50,000 ft 1,000 kts
AIRCRAFT INFO AND CUMULATIVE STATS
Aircraft Type: 
B744
Registration: 
SELCAL: 
AKQS
MSN/LN: 
25811 / 1018
Operator: 
Total Flights: 
5
Total Block Time: 
38.2 hrs
Total Flight Time: 
36.4 hrs
Total Fuel Time: 
832,927 lb
DATALINK LOG | Newest first | Current as of: 2020-11-29 22:19:56
LABEL SEQUENCE CONTENT Dn/Up
QD395209:38 45.2▼ Dn
QC331609:33▼ Dn
GA5410GATE 534▲ Up
GR5307EGLL 09:25 MAAS 06 YP/UM 00/01 WCHR/S/C 04/00/00▼ Dn
2U4000EGLL 050820Z AUTO 30007KT 260V340 9999 SCT032 BKN039 14/08 Q1025 NOSIG▲ Up
2S3932EGLL▼ Dn
QB551601:55▼ Dn
QA420801:42 222.3▼ Dn
A33919CLEARED TO EGLL VIA BRYCC4 TAYOT KP87A ABR YQT YMO JOVIE DORYY 5700N/05000W 5700N/04000W 5700N/03000W 5700N/02000W PIKIL SOVED LUTOV KELLY UL10 WAL UY53 NUGRA BNN1B. SQUAWK 4745.▲ Up
2U3915KDEN 050053Z 19019G28KT 10SM FEW100 BKN140 BKN200 26/07 A3019 RMK AO2 PK WND 20035/0021 SLP147 T02610072▲ Up
2S3848KDEN▼ Dn
A73807NOTAM WIE UFN CONF ACARS IN TIMES VIA WEB INTERFACE BEFORE SETTING INS TO OFF. ACARS LOG SHOWS QD MSG AND INFO TAB STATUS AS -AT ARR GATE-.▲ Up
Q03807[LINK ACK]▲ Up
Q03706[LINK TEST]▼ Dn


AIRCRAFT HISTORY
FLIGHT DATE FLIGHT NO. ORIGIN DESTINATION CLEARED ROUTE BLOCK TIME FLIGHT TIME FUEL USED PILOT
2020-08-02BAW8022KJFK KBOS KJFK MERIT KBOS1.2 hrs0.8 hrs24,557 lbKevin Hall
2019-09-11BAW175EGLL KJFK EGLL D256G D261K WODNB D101H CPT KENET GAVGO DIKAS STU SLANY MALOT 5330N 5240N 5050N ELSIR TUSKY PLYMM PVD TRAIT PARCH CCC ROBER CRAIL CAPIT KJFK7.8 hrs7.3 hrs172,495 lbKyle Rodgers
2019-09-06BAW268KLAX EGLL KLAX DLREY KLIPR KEGGS COOPP ORCKA NNAVY BLAZN LAS BAWER LARVE EKR RWF SSM VBS BAREE RIKAL 5350N 5540N 5530N 5420N MALOT GISTI SLANY STU NUMPO OKESI BEDEK NIGIT LLW03 OCK EGLL9.8 hrs9.5 hrs214,833 lbKyle Rodgers
2019-09-05BAW269EGLL KLAX EGLL D256G D261K WODNB D101H CPT KENET GAVGO MALBY DIKAS MEDOG LANON BADSI LIPGO DUB OLAPO SLG MOLAK NIBOG BEGID BILTO 5820N 6030N 6140N 6150N NIFTY MUSLO RODBO YLA YSK YPO YTL WG DIK BOY BPI TCH ILC KOPLE BOGET MEETT WATSS UPDOC KLAX11.6 hrs11.2 hrs243,934 lbKyle Rodgers
2019-09-05BAW218KDEN EGLL KDEN GISTT KIDNG GINTH SPYCE TURBN CHICN KKIMM BRYCC TAYOT KP87A ABR YQT YMO JOVIE DORYY 5750N 5740N 5730N 5720N PIKIL SOVED LUTOV KELLY CASEL PENIL WAL EKLAD MOGTA NANTI NUGRA TOBID SOPIT WCONB BNN EGLL7.9 hrs7.6 hrs177,107 lbKyle Rodgers